createdAt,value
2018-10-19T00:00:34.573Z,76.51
2018-10-19T00:03:02.641Z,77.07
2018-10-19T00:05:30.638Z,77.15
2018-10-19T00:07:58.629Z,76.16
2018-10-19T00:10:26.612Z,75.96
2018-10-19T00:12:54.670Z,75.67
2018-10-19T00:15:22.586Z,76.35
2018-10-19T00:17:50.612Z,76.04
2018-10-19T00:20:18.636Z,75.95
2018-10-19T00:22:46.650Z,75.74
2018-10-19T00:25:14.628Z,76.00
2018-10-19T00:27:42.674Z,76.57
2018-10-19T00:30:11.312Z,77.87
2018-10-19T00:32:39.383Z,76.72
2018-10-19T00:35:08.205Z,76.76
2018-10-19T00:37:36.160Z,77.44
2018-10-19T00:40:04.252Z,77.61
2018-10-19T00:42:32.389Z,76.88
2018-10-19T00:45:00.423Z,77.23
2018-10-19T00:47:28.633Z,76.63
2018-10-19T00:49:56.625Z,76.76
2018-10-19T00:52:24.607Z,76.42
2018-10-19T00:54:52.660Z,77.15
2018-10-19T00:57:20.683Z,76.47
2018-10-19T00:59:48.708Z,77.21
2018-10-19T01:02:16.752Z,77.23
2018-10-19T01:04:44.769Z,76.58
2018-10-19T01:07:12.739Z,77.02
2018-10-19T01:09:40.754Z,76.41
2018-10-19T01:12:08.836Z,76.18
2018-10-19T01:14:36.918Z,76.39
2018-10-19T01:17:05.048Z,75.79
2018-10-19T01:19:33.009Z,75.57
2018-10-19T01:22:01.204Z,76.31
2018-10-19T01:24:29.185Z,76.60
2018-10-19T01:26:57.239Z,75.74
2018-10-19T01:29:25.245Z,76.08
2018-10-19T01:31:53.236Z,75.65
2018-10-19T01:34:21.268Z,75.92
2018-10-19T01:36:49.289Z,75.03
2018-10-19T01:39:17.279Z,75.06
2018-10-19T01:41:45.317Z,75.39
2018-10-19T01:44:13.412Z,75.10
2018-10-19T01:46:47.438Z,75.36
2018-10-19T01:49:15.645Z,75.68
2018-10-19T01:51:44.261Z,75.19
2018-10-19T01:54:12.301Z,74.99
2018-10-19T01:56:40.319Z,75.05
2018-10-19T01:59:08.441Z,75.52
2018-10-19T02:01:36.477Z,74.81
2018-10-19T02:04:04.469Z,74.73
2018-10-19T02:06:32.592Z,75.23
2018-10-19T02:09:00.627Z,75.14
2018-10-19T02:11:28.598Z,75.95
2018-10-19T02:13:56.601Z,76.09
2018-10-19T02:16:24.619Z,75.92
2018-10-19T02:18:52.649Z,77.04
2018-10-19T02:21:20.635Z,77.12
2018-10-19T02:23:48.633Z,77.14
2018-10-19T02:26:16.636Z,77.11
2018-10-19T02:28:44.632Z,77.02
2018-10-19T02:31:12.671Z,76.90
2018-10-19T02:33:40.652Z,77.03
2018-10-19T02:36:08.864Z,76.00
2018-10-19T02:38:36.869Z,76.48
2018-10-19T02:41:05.288Z,76.57
2018-10-19T02:43:33.280Z,75.92
2018-10-19T02:46:01.265Z,76.45
2018-10-19T02:48:29.301Z,76.84
2018-10-19T02:50:57.407Z,76.62
2018-10-19T02:53:25.345Z,75.97
2018-10-19T02:55:53.356Z,76.43
2018-10-19T02:58:21.369Z,76.27
2018-10-19T03:00:49.437Z,75.89
2018-10-19T03:03:17.490Z,75.92
2018-10-19T03:05:45.533Z,75.76
2018-10-19T03:08:13.536Z,76.42
2018-10-19T03:10:41.585Z,75.63
2018-10-19T03:13:09.656Z,76.04
2018-10-19T03:15:37.676Z,75.91
2018-10-19T03:18:05.950Z,76.08
2018-10-19T03:20:33.925Z,75.10
2018-10-19T03:23:02.108Z,75.96
2018-10-19T03:25:30.051Z,75.89
2018-10-19T03:27:58.055Z,75.39
2018-10-19T03:30:26.066Z,74.95
2018-10-19T03:32:54.093Z,74.89
2018-10-19T03:35:22.114Z,74.72
2018-10-19T03:37:51.150Z,75.46
2018-10-19T03:40:19.125Z,75.93
2018-10-19T03:42:47.121Z,75.28
2018-10-19T03:45:15.208Z,77.22
2018-10-19T03:47:43.206Z,76.10
2018-10-19T03:50:11.225Z,76.85
2018-10-19T03:52:39.234Z,76.09
2018-10-19T03:55:07.252Z,76.30
2018-10-19T03:57:35.250Z,76.70
2018-10-19T04:00:03.346Z,76.46
2018-10-19T04:02:31.336Z,76.24
2018-10-19T04:04:59.414Z,77.39
2018-10-19T04:07:27.416Z,78.33
2018-10-19T04:09:55.425Z,78.06
2018-10-19T04:12:23.465Z,79.52
2018-10-19T04:14:51.469Z,79.42
2018-10-19T04:17:19.468Z,78.64
2018-10-19T04:19:47.533Z,78.09
2018-10-19T04:22:15.638Z,79.20
2018-10-19T04:24:43.685Z,78.00
2018-10-19T04:27:11.946Z,78.57
2018-10-19T04:29:39.917Z,78.27
2018-10-19T04:32:07.912Z,77.50
2018-10-19T04:34:35.909Z,78.80
2018-10-19T04:37:05.530Z,79.05
2018-10-19T04:39:33.962Z,79.47
2018-10-19T04:42:02.667Z,79.18
2018-10-19T04:44:30.681Z,79.50
2018-10-19T04:46:58.723Z,79.12
2018-10-19T04:49:27.000Z,78.91
2018-10-19T04:51:55.005Z,78.30
2018-10-19T04:54:23.292Z,77.53
2018-10-19T04:56:51.296Z,77.45
2018-10-19T04:59:19.489Z,77.56
2018-10-19T05:01:47.840Z,77.16
2018-10-19T05:04:15.894Z,77.00
2018-10-19T05:06:44.198Z,75.91
2018-10-19T05:09:13.085Z,76.24
2018-10-19T05:11:41.215Z,75.87
2018-10-19T05:14:09.702Z,75.36
2018-10-19T05:16:38.223Z,75.49
2018-10-19T05:19:06.776Z,75.63
2018-10-19T05:21:35.565Z,76.40
2018-10-19T05:24:03.598Z,75.39
2018-10-19T05:26:31.619Z,76.42
2018-10-19T05:28:59.655Z,75.60
2018-10-19T05:31:27.649Z,76.38
2018-10-19T05:33:57.057Z,76.51
2018-10-19T05:36:25.297Z,77.46
2018-10-19T05:38:53.465Z,77.10
2018-10-19T05:41:21.835Z,76.86
2018-10-19T05:43:49.887Z,76.48
2018-10-19T05:46:18.090Z,76.89
2018-10-19T05:48:46.137Z,76.49
2018-10-19T05:51:14.184Z,76.07
2018-10-19T05:53:42.224Z,75.64
2018-10-19T05:56:10.227Z,77.03
2018-10-19T05:58:38.314Z,76.52
2018-10-19T06:01:06.666Z,77.13
2018-10-19T06:03:34.729Z,77.23
2018-10-19T06:06:02.775Z,77.05
2018-10-19T06:08:30.893Z,77.34
2018-10-19T06:10:58.987Z,77.61
2018-10-19T06:13:27.266Z,77.52
2018-10-19T06:15:55.268Z,78.27
2018-10-19T06:18:23.293Z,77.49
2018-10-19T06:20:51.294Z,77.58
2018-10-19T06:23:19.387Z,77.73
2018-10-19T06:25:47.419Z,77.94
2018-10-19T06:28:15.459Z,77.34
2018-10-19T06:30:43.437Z,78.01
2018-10-19T06:33:11.428Z,77.73
2018-10-19T06:35:39.450Z,78.19
2018-10-19T06:38:07.744Z,82.60
2018-10-19T06:40:35.839Z,85.41
2018-10-19T06:43:03.837Z,83.94
2018-10-19T06:45:31.860Z,79.34
2018-10-19T06:47:59.907Z,68.82
2018-10-19T06:50:27.892Z,71.07
2018-10-19T06:52:55.944Z,65.16
2018-10-19T06:55:23.940Z,56.35
2018-10-19T06:57:52.097Z,55.76
2018-10-19T07:00:20.069Z,52.84
2018-10-19T07:02:48.085Z,47.90
2018-10-19T07:05:16.135Z,43.81
2018-10-19T07:07:44.153Z,41.83
2018-10-19T07:10:12.305Z,38.90
2018-10-19T07:12:40.983Z,37.20
2018-10-19T07:15:09.792Z,36.62
2018-10-19T07:17:38.156Z,36.36
2018-10-19T07:20:07.203Z,36.18
2018-10-19T07:22:35.185Z,34.25
2018-10-19T07:25:03.264Z,34.19
2018-10-19T07:27:31.284Z,32.85
2018-10-19T07:29:59.461Z,32.05
2018-10-19T07:32:27.473Z,30.54
2018-10-19T07:34:55.593Z,30.39
2018-10-19T07:37:23.702Z,31.31
2018-10-19T07:39:51.862Z,30.56
2018-10-19T07:42:19.935Z,31.98
2018-10-19T07:44:47.998Z,32.72
2018-10-19T07:47:16.113Z,32.06
2018-10-19T07:49:44.050Z,32.32
2018-10-19T07:52:12.084Z,31.57
2018-10-19T07:54:40.246Z,31.04
2018-10-19T07:57:08.262Z,32.07
2018-10-19T07:59:36.296Z,31.71
2018-10-19T08:02:04.920Z,31.75
2018-10-19T08:04:32.894Z,31.62
2018-10-19T08:07:00.893Z,31.73
2018-10-19T08:09:28.913Z,31.36
2018-10-19T08:11:56.931Z,30.95
2018-10-19T08:14:24.978Z,31.47
2018-10-19T08:16:53.048Z,29.59
2018-10-19T08:19:21.078Z,30.82
2018-10-19T08:21:49.182Z,29.37
2018-10-19T08:24:17.213Z,30.52
2018-10-19T08:26:45.229Z,29.01
2018-10-19T08:29:13.342Z,28.60
2018-10-19T08:31:41.293Z,28.36
2018-10-19T08:34:09.298Z,28.09
2018-10-19T08:36:37.377Z,27.74
2018-10-19T08:39:07.409Z,26.40
2018-10-19T08:41:35.495Z,30.14
2018-10-19T08:44:03.553Z,28.09
2018-10-19T08:46:37.129Z,26.74
2018-10-19T08:49:06.673Z,27.30
2018-10-19T08:51:34.709Z,29.04
2018-10-19T08:54:02.781Z,27.77
2018-10-19T08:56:30.836Z,28.55
2018-10-19T08:58:58.948Z,29.16
2018-10-19T09:01:27.217Z,28.89
2018-10-19T09:03:55.376Z,28.54
2018-10-19T09:06:23.393Z,29.59
2018-10-19T09:08:52.573Z,29.26
2018-10-19T09:11:20.617Z,30.95
2018-10-19T09:13:48.681Z,31.17
2018-10-19T09:16:16.672Z,30.75
2018-10-19T09:18:44.737Z,32.34
2018-10-19T09:21:12.894Z,33.65
2018-10-19T09:23:40.836Z,33.32
2018-10-19T09:26:08.982Z,34.94
2018-10-19T09:28:37.032Z,35.60
2018-10-19T09:31:05.508Z,35.47
2018-10-19T09:33:33.554Z,34.72
2018-10-19T09:36:01.842Z,34.34
2018-10-19T09:38:29.852Z,34.62
2018-10-19T09:40:58.004Z,37.42
2018-10-19T09:43:25.972Z,33.29
2018-10-19T09:45:53.990Z,34.23
2018-10-19T09:48:22.019Z,34.19
2018-10-19T09:50:50.113Z,34.52
2018-10-19T09:53:18.144Z,32.95
2018-10-19T09:55:46.253Z,33.22
2018-10-19T09:58:14.271Z,33.98
2018-10-19T10:00:47.924Z,36.38
2018-10-19T10:03:16.181Z,34.69
2018-10-19T10:05:44.228Z,31.62
2018-10-19T10:08:12.309Z,33.30
2018-10-19T10:10:40.332Z,35.84
2018-10-19T10:13:08.574Z,35.74
2018-10-19T10:15:36.884Z,34.96
2018-10-19T10:18:05.134Z,35.92
2018-10-19T10:20:33.144Z,35.98
2018-10-19T10:23:01.129Z,38.37
2018-10-19T10:25:29.294Z,40.74
2018-10-19T10:27:57.379Z,40.42
2018-10-19T10:30:25.369Z,41.07
2018-10-19T10:32:53.420Z,40.90
2018-10-19T10:35:21.489Z,44.65
2018-10-19T10:37:49.540Z,43.06
2018-10-19T10:40:17.575Z,44.27
2018-10-19T10:42:45.564Z,44.17
2018-10-19T10:45:13.677Z,44.63
2018-10-19T10:47:41.686Z,45.75
2018-10-19T10:50:09.893Z,44.83
2018-10-19T10:52:37.926Z,46.98
2018-10-19T10:55:06.129Z,46.99
2018-10-19T10:57:34.273Z,46.89
2018-10-19T11:00:02.301Z,48.15
2018-10-19T11:02:30.281Z,45.57
2018-10-19T11:04:58.264Z,45.91
2018-10-19T11:07:26.361Z,45.67
2018-10-19T11:09:54.347Z,49.92
2018-10-19T11:12:22.390Z,46.48
2018-10-19T11:14:50.403Z,47.57
2018-10-19T11:17:18.817Z,49.20
2018-10-19T11:19:46.873Z,49.12
2018-10-19T11:22:15.026Z,48.74
2018-10-19T11:24:42.980Z,50.27
2018-10-19T11:27:11.025Z,51.20
2018-10-19T11:29:39.117Z,51.38
2018-10-19T11:32:07.335Z,51.25
2018-10-19T11:34:35.356Z,51.11
2018-10-19T11:37:03.697Z,51.74
2018-10-19T11:39:31.838Z,52.84
2018-10-19T11:41:59.932Z,52.66
2018-10-19T11:44:27.921Z,51.94
2018-10-19T11:46:59.821Z,52.59
2018-10-19T11:49:28.206Z,52.94
2018-10-19T11:51:56.353Z,52.95
2018-10-19T11:54:24.336Z,51.12
2018-10-19T11:56:52.356Z,49.65
2018-10-19T11:59:20.393Z,50.38
2018-10-19T12:01:48.412Z,52.09
2018-10-19T12:04:16.482Z,52.01
2018-10-19T12:06:44.450Z,51.23
2018-10-19T12:09:12.906Z,50.03
2018-10-19T12:11:41.001Z,50.75
2018-10-19T12:14:09.425Z,48.99
2018-10-19T12:16:37.464Z,48.51
2018-10-19T12:19:05.599Z,48.83
2018-10-19T12:21:33.671Z,48.87
2018-10-19T12:24:01.946Z,47.17
2018-10-19T12:26:30.018Z,47.19
2018-10-19T12:28:58.044Z,46.77
2018-10-19T12:31:26.093Z,47.55
2018-10-19T12:33:54.111Z,46.58
2018-10-19T12:36:22.161Z,46.37
2018-10-19T12:38:50.286Z,45.45
2018-10-19T12:41:18.361Z,49.60
2018-10-19T12:43:46.515Z,45.47
2018-10-19T12:46:27.164Z,45.59
2018-10-19T12:48:55.733Z,46.47
2018-10-19T12:51:23.797Z,46.87
2018-10-19T12:53:51.831Z,45.88
2018-10-19T12:56:20.774Z,45.23
2018-10-19T12:58:49.806Z,47.61
2018-10-19T13:01:17.917Z,47.33
2018-10-19T13:03:45.942Z,48.04
2018-10-19T13:06:13.953Z,47.22
2018-10-19T13:08:42.277Z,48.34
2018-10-19T13:11:10.455Z,48.06
2018-10-19T13:13:38.505Z,48.03
2018-10-19T13:16:06.529Z,46.93
2018-10-19T13:18:34.636Z,46.44
2018-10-19T13:21:03.495Z,48.47
2018-10-19T13:23:32.573Z,46.21
2018-10-19T13:26:00.797Z,45.41
2018-10-19T13:28:28.835Z,47.50
2018-10-19T13:30:56.908Z,45.95
2018-10-19T13:33:25.208Z,47.20
2018-10-19T13:35:53.354Z,47.33
2018-10-19T13:38:21.938Z,47.35
2018-10-19T13:40:50.392Z,47.38
2018-10-19T13:43:18.548Z,48.82
2018-10-19T13:45:46.768Z,47.95
2018-10-19T13:48:14.742Z,48.83
2018-10-19T13:50:43.043Z,47.74
2018-10-19T13:53:11.105Z,47.44
2018-10-19T13:55:39.194Z,48.60
2018-10-19T13:58:07.193Z,50.44
2018-10-19T14:00:35.300Z,49.99
2018-10-19T14:03:03.396Z,49.24
2018-10-19T14:05:31.539Z,49.63
2018-10-19T14:07:59.453Z,50.27
2018-10-19T14:10:27.556Z,49.97
2018-10-19T14:12:55.572Z,50.18
2018-10-19T14:15:23.601Z,50.12
2018-10-19T14:17:51.617Z,52.18
2018-10-19T14:20:20.881Z,50.41
2018-10-19T14:22:48.886Z,50.90
2018-10-19T14:25:16.913Z,50.72
2018-10-19T14:27:45.385Z,51.59
2018-10-19T14:30:14.720Z,51.16
2018-10-19T14:32:43.170Z,51.20
2018-10-19T14:35:12.107Z,50.41
2018-10-19T14:37:41.107Z,50.75
2018-10-19T14:40:11.365Z,49.35
2018-10-19T14:42:40.083Z,50.13
2018-10-19T14:45:09.163Z,49.98
2018-10-19T14:47:37.677Z,49.82
2018-10-19T14:50:06.674Z,50.05
2018-10-19T14:52:34.686Z,50.26
2018-10-19T14:55:02.775Z,51.09
2018-10-19T14:57:30.796Z,52.90
2018-10-19T14:59:58.799Z,52.50
2018-10-19T15:02:26.828Z,52.64
2018-10-19T15:04:54.894Z,53.81
2018-10-19T15:07:22.844Z,53.30
2018-10-19T15:09:51.092Z,54.66
2018-10-19T15:12:18.873Z,54.34
2018-10-19T15:14:46.993Z,54.16
2018-10-19T15:17:15.009Z,55.00
2018-10-19T15:19:43.145Z,54.50
2018-10-19T15:22:11.317Z,54.96
2018-10-19T15:24:39.396Z,54.63
2018-10-19T15:27:07.736Z,54.63
2018-10-19T15:29:35.822Z,54.79
2018-10-19T15:32:03.781Z,54.83
2018-10-19T15:34:31.820Z,54.71
2018-10-19T15:36:59.945Z,54.21
2018-10-19T15:39:27.961Z,54.65
2018-10-19T15:41:55.986Z,54.62
2018-10-19T15:44:24.072Z,55.17
2018-10-19T15:46:52.061Z,55.67
2018-10-19T15:49:20.089Z,54.72
2018-10-19T15:51:48.110Z,54.91
2018-10-19T15:54:16.164Z,56.01
2018-10-19T15:56:44.282Z,55.60
2018-10-19T15:59:12.318Z,56.00
2018-10-19T16:01:40.361Z,56.08
2018-10-19T16:04:08.416Z,57.16
2018-10-19T16:06:36.428Z,57.26
2018-10-19T16:09:07.548Z,56.13
2018-10-19T16:11:35.569Z,56.68
2018-10-19T16:14:03.615Z,56.16
2018-10-19T16:16:31.624Z,56.75
2018-10-19T16:18:59.639Z,57.80
2018-10-19T16:21:27.633Z,57.49
2018-10-19T16:23:55.647Z,58.19
2018-10-19T16:26:23.632Z,57.95
2018-10-19T16:28:51.679Z,58.55
2018-10-19T16:31:19.677Z,58.26
2018-10-19T16:33:47.688Z,58.97
2018-10-19T16:36:15.774Z,58.55
2018-10-19T16:38:43.786Z,59.81
2018-10-19T16:41:11.811Z,59.39
2018-10-19T16:43:39.809Z,59.92
2018-10-19T16:46:07.876Z,60.73
2018-10-19T16:48:35.854Z,61.20
2018-10-19T16:51:04.013Z,60.61
2018-10-19T16:53:32.053Z,60.66
2018-10-19T16:56:00.230Z,60.99
2018-10-19T16:58:28.399Z,61.68
2018-10-19T17:00:56.397Z,61.36
2018-10-19T17:03:24.558Z,61.31
2018-10-19T17:05:52.588Z,61.27
2018-10-19T17:08:20.603Z,61.56
2018-10-19T17:10:48.618Z,62.35
2018-10-19T17:13:17.516Z,62.71
2018-10-19T17:15:45.594Z,61.94
2018-10-19T17:18:13.602Z,62.42
2018-10-19T17:20:41.624Z,62.04
2018-10-19T17:23:09.731Z,62.53
2018-10-19T17:25:37.766Z,63.68
2018-10-19T17:28:06.113Z,63.60
2018-10-19T17:33:13.658Z,63.44
2018-10-19T17:35:41.695Z,63.43
2018-10-19T17:38:09.713Z,63.52
2018-10-19T17:40:37.748Z,64.09
2018-10-19T17:43:06.315Z,63.77
2018-10-19T17:45:34.243Z,64.59
2018-10-19T17:48:02.471Z,65.38
2018-10-19T17:50:30.456Z,65.57
2018-10-19T17:52:58.518Z,65.86
2018-10-19T17:55:26.608Z,65.85
2018-10-19T17:57:54.616Z,66.03
2018-10-19T18:00:22.715Z,66.28
2018-10-19T18:02:50.749Z,65.96
2018-10-19T18:05:18.773Z,67.23
2018-10-19T18:07:46.829Z,68.57
2018-10-19T18:10:14.877Z,67.37
2018-10-19T18:12:43.049Z,68.04
2018-10-19T18:15:11.125Z,67.42
2018-10-19T18:17:39.491Z,68.09
2018-10-19T18:20:07.499Z,67.44
2018-10-19T18:22:35.768Z,66.51
2018-10-19T18:25:03.781Z,67.14
2018-10-19T18:27:31.806Z,67.85
2018-10-19T18:29:59.848Z,67.94
2018-10-19T18:32:28.059Z,68.12
2018-10-19T18:34:56.336Z,68.62
2018-10-19T18:37:24.343Z,69.15
2018-10-19T18:39:52.358Z,69.91
2018-10-19T18:42:20.398Z,69.39
2018-10-19T18:44:48.476Z,69.33
2018-10-19T18:47:16.544Z,69.52
2018-10-19T18:49:44.692Z,70.12
2018-10-19T18:52:12.896Z,70.23
2018-10-19T18:54:40.981Z,70.46
2018-10-19T18:57:09.045Z,69.99
2018-10-19T18:59:37.101Z,70.92
2018-10-19T19:02:05.583Z,70.99
2018-10-19T19:04:33.563Z,69.96
2018-10-19T19:07:01.690Z,70.13
2018-10-19T19:09:29.709Z,69.46
2018-10-19T19:11:57.704Z,69.54
2018-10-19T19:14:25.805Z,69.76
2018-10-19T19:16:53.815Z,69.43
2018-10-19T19:19:21.872Z,69.29
2018-10-19T19:21:49.923Z,68.99
2018-10-19T19:24:23.410Z,70.34
2018-10-19T19:26:51.401Z,69.30
2018-10-19T19:29:19.395Z,69.00
2018-10-19T19:31:47.418Z,68.47
2018-10-19T19:34:19.968Z,68.20
2018-10-19T19:36:48.428Z,68.68
2018-10-19T19:39:16.441Z,68.23
2018-10-19T19:41:49.775Z,69.50
2018-10-19T19:44:17.764Z,68.81
2018-10-19T19:46:45.796Z,68.98
2018-10-19T19:49:19.367Z,69.82
2018-10-19T19:51:47.353Z,70.44
2018-10-19T19:54:15.401Z,69.55
2018-10-19T19:56:43.547Z,70.23
2018-10-19T19:59:11.579Z,70.06
2018-10-19T20:01:39.529Z,70.31
2018-10-19T20:04:07.730Z,71.01
2018-10-19T20:06:35.821Z,70.63
2018-10-19T20:09:05.036Z,71.86
2018-10-19T20:11:33.144Z,72.17
2018-10-19T20:14:01.153Z,72.23
2018-10-19T20:16:29.305Z,71.50
2018-10-19T20:18:57.357Z,71.43
2018-10-19T20:21:25.393Z,70.06
2018-10-19T20:23:53.497Z,70.77
2018-10-19T20:26:21.540Z,71.25
2018-10-19T20:28:49.590Z,70.37
2018-10-19T20:31:17.590Z,70.74
2018-10-19T20:33:45.877Z,70.88
2018-10-19T20:36:14.014Z,70.44
2018-10-19T20:38:42.214Z,70.73
2018-10-19T20:41:10.354Z,71.99
2018-10-19T20:43:38.390Z,72.48
2018-10-19T20:46:06.810Z,73.73
2018-10-19T20:48:35.023Z,73.19
2018-10-19T20:51:03.196Z,72.45
2018-10-19T20:53:31.691Z,71.62
2018-10-19T20:55:59.789Z,71.53
2018-10-19T20:58:27.788Z,71.08
2018-10-19T21:00:55.905Z,71.75
2018-10-19T21:03:23.984Z,71.34
2018-10-19T21:08:15.132Z,70.85
2018-10-19T21:10:43.068Z,72.96
2018-10-19T21:13:11.139Z,72.75
2018-10-19T21:15:39.131Z,73.19
2018-10-19T21:18:07.285Z,72.74
2018-10-19T21:20:35.350Z,72.87
2018-10-19T21:23:03.508Z,73.40
2018-10-19T21:25:31.547Z,73.93
2018-10-19T21:27:59.578Z,74.54
2018-10-19T21:30:27.751Z,74.37
2018-10-19T21:32:55.753Z,74.67
2018-10-19T21:35:24.048Z,74.83
2018-10-19T21:37:52.112Z,75.29
2018-10-19T21:40:20.508Z,75.17
2018-10-19T21:42:48.647Z,74.24
2018-10-19T21:45:16.694Z,74.69
2018-10-19T21:47:44.792Z,73.99
2018-10-19T21:50:13.968Z,74.79
2018-10-19T21:52:41.932Z,74.13
2018-10-19T21:55:11.277Z,74.56
2018-10-19T21:57:39.345Z,74.46
2018-10-19T22:00:08.362Z,73.37
2018-10-19T22:02:36.449Z,72.75
2018-10-19T22:05:04.599Z,72.12
2018-10-19T22:07:32.580Z,72.71
2018-10-19T22:10:00.546Z,73.05
2018-10-19T22:12:28.556Z,73.76
2018-10-19T22:14:56.587Z,73.25
2018-10-19T22:17:24.597Z,73.33
2018-10-19T22:19:52.829Z,72.83
2018-10-19T22:22:20.846Z,72.97
2018-10-19T22:24:48.969Z,71.74
2018-10-19T22:27:16.977Z,72.51
2018-10-19T22:29:44.984Z,71.49
2018-10-19T22:32:13.029Z,71.94
2018-10-19T22:34:41.250Z,71.34
2018-10-19T22:37:09.305Z,71.11
2018-10-19T22:39:37.333Z,70.94
2018-10-19T22:42:05.415Z,71.45
2018-10-19T22:44:34.306Z,71.03
2018-10-19T22:47:02.395Z,71.45
2018-10-19T22:49:30.373Z,70.74
2018-10-19T22:51:58.364Z,70.26
2018-10-19T22:54:26.368Z,70.19
2018-10-19T22:56:54.476Z,70.54
2018-10-19T22:59:22.678Z,71.73
2018-10-19T23:01:50.665Z,71.32
2018-10-19T23:04:18.698Z,70.80
2018-10-19T23:06:46.856Z,70.22
2018-10-19T23:09:14.869Z,70.47
2018-10-19T23:11:42.909Z,70.71
2018-10-19T23:14:10.916Z,71.99
2018-10-19T23:16:38.924Z,72.65
2018-10-19T23:19:06.999Z,73.34
2018-10-19T23:21:34.963Z,72.50
2018-10-19T23:24:03.218Z,72.79
2018-10-19T23:26:31.236Z,72.62
2018-10-19T23:28:59.296Z,73.48
2018-10-19T23:31:27.531Z,73.46
2018-10-19T23:33:55.382Z,73.11
2018-10-19T23:36:23.445Z,73.42
2018-10-19T23:38:51.457Z,72.44
2018-10-19T23:41:19.461Z,72.65
2018-10-19T23:43:47.527Z,72.96
2018-10-19T23:46:15.485Z,72.06
2018-10-19T23:48:43.799Z,72.15
2018-10-19T23:51:11.813Z,72.00
2018-10-19T23:53:39.817Z,71.69
2018-10-19T23:56:07.830Z,72.27
2018-10-19T23:58:35.829Z,72.95
